createdAt,value
2023-03-17T00:04:59.258Z,3.25
2023-03-17T00:10:27.032Z,3.28
2023-03-17T00:15:54.954Z,2.90
2023-03-17T00:21:22.621Z,3.50
2023-03-17T00:26:43.659Z,3.20
2023-03-17T00:32:05.100Z,2.55
2023-03-17T00:37:25.843Z,3.00
2023-03-17T00:42:46.518Z,3.00
2023-03-17T00:48:21.831Z,2.92
2023-03-17T00:53:43.218Z,2.97
2023-03-17T00:59:05.047Z,2.65
2023-03-17T01:04:26.108Z,3.17
2023-03-17T01:09:46.693Z,2.92
2023-03-17T01:15:07.841Z,2.78
2023-03-17T01:20:32.066Z,2.60
2023-03-17T01:25:52.882Z,2.53
2023-03-17T01:31:13.655Z,2.13
2023-03-17T01:36:34.477Z,2.90
2023-03-17T01:42:00.400Z,2.85
2023-03-17T01:47:24.579Z,3.00
2023-03-17T01:52:45.783Z,2.55
2023-03-17T01:58:07.411Z,2.45
2023-03-17T02:03:29.881Z,2.80
2023-03-17T02:08:50.919Z,2.22
2023-03-17T02:14:12.365Z,2.50
2023-03-17T02:19:35.322Z,3.63
2023-03-17T02:24:59.510Z,3.83
2023-03-17T02:30:24.246Z,3.60
2023-03-17T02:35:44.978Z,3.53
2023-03-17T02:41:07.268Z,3.28
2023-03-17T02:46:28.640Z,3.17
2023-03-17T02:51:53.436Z,3.70
2023-03-17T02:57:14.187Z,3.90
2023-03-17T03:02:34.810Z,2.42
2023-03-17T03:07:55.681Z,2.88
2023-03-17T03:13:16.854Z,2.72
2023-03-17T03:18:37.860Z,2.70
2023-03-17T03:23:58.629Z,4.13
2023-03-17T03:29:19.689Z,3.35
2023-03-17T03:34:40.585Z,3.40
2023-03-17T03:40:01.479Z,4.20
2023-03-17T03:45:22.407Z,3.92
2023-03-17T03:50:43.265Z,4.00
2023-03-17T03:56:04.393Z,4.05
2023-03-17T04:01:25.419Z,2.88
2023-03-17T04:06:46.402Z,2.97
2023-03-17T04:12:08.326Z,2.95
2023-03-17T04:17:29.316Z,4.00
2023-03-17T04:22:50.043Z,6.18
2023-03-17T04:28:12.248Z,5.22
2023-03-17T04:33:33.581Z,4.68
2023-03-17T04:38:54.355Z,4.53
2023-03-17T04:44:15.081Z,3.95
2023-03-17T04:49:35.608Z,4.95
2023-03-17T04:54:56.548Z,4.78
2023-03-17T05:00:18.237Z,4.50
2023-03-17T05:05:38.914Z,8.43
2023-03-17T05:10:59.433Z,9.30
2023-03-17T05:16:20.227Z,8.07
2023-03-17T05:21:41.517Z,7.10
2023-03-17T05:27:02.182Z,3.45
2023-03-17T05:32:23.207Z,3.08
2023-03-17T05:37:44.753Z,3.58
2023-03-17T05:43:06.236Z,5.60
2023-03-17T05:48:27.082Z,3.38
2023-03-17T05:53:47.853Z,3.78
2023-03-17T05:59:09.489Z,4.10
2023-03-17T06:04:30.202Z,5.07
2023-03-17T06:09:50.793Z,9.05
2023-03-17T06:15:11.564Z,7.45
2023-03-17T06:20:33.458Z,5.95
2023-03-17T06:25:54.431Z,7.45
2023-03-17T06:31:15.633Z,4.53
2023-03-17T06:36:38.613Z,4.47
2023-03-17T06:41:59.145Z,3.90
2023-03-17T06:47:20.199Z,3.08
2023-03-17T06:52:41.348Z,2.05
2023-03-17T06:58:03.139Z,1.80
2023-03-17T07:03:25.561Z,1.85
2023-03-17T07:08:47.601Z,2.47
2023-03-17T07:14:09.065Z,1.75
2023-03-17T07:19:31.318Z,1.80
2023-03-17T07:24:52.674Z,2.05
2023-03-17T07:30:15.020Z,2.28
2023-03-17T07:35:36.308Z,2.10
2023-03-17T07:40:56.866Z,1.55
2023-03-17T07:46:17.663Z,1.75
2023-03-17T07:51:38.837Z,2.38
2023-03-17T07:56:59.538Z,2.28
2023-03-17T08:02:21.158Z,2.25
2023-03-17T08:07:41.905Z,1.92
2023-03-17T08:13:02.646Z,2.40
2023-03-17T08:18:23.736Z,1.95
2023-03-17T08:23:44.727Z,2.22
2023-03-17T08:29:05.562Z,2.33
2023-03-17T08:34:26.426Z,2.17
2023-03-17T08:39:47.274Z,2.67
2023-03-17T08:45:09.980Z,2.22
2023-03-17T08:50:31.345Z,2.78
2023-03-17T08:55:55.513Z,2.45
2023-03-17T09:01:17.044Z,2.35
2023-03-17T09:06:39.739Z,2.55
2023-03-17T09:12:06.321Z,2.90
2023-03-17T09:17:27.660Z,2.70
2023-03-17T09:22:49.187Z,2.60
2023-03-17T09:28:12.147Z,2.70
2023-03-17T09:33:33.284Z,2.78
2023-03-17T09:38:54.149Z,2.70
2023-03-17T09:44:28.803Z,2.22
2023-03-17T09:49:58.624Z,2.17
2023-03-17T09:55:28.206Z,2.30
2023-03-17T10:00:49.263Z,2.63
2023-03-17T10:06:39.262Z,2.55
2023-03-17T10:12:11.159Z,3.38
2023-03-17T10:17:36.743Z,2.75
2023-03-17T10:23:04.815Z,3.30
2023-03-17T10:28:35.773Z,2.90
2023-03-17T10:33:59.072Z,3.20
2023-03-17T10:39:22.389Z,3.28
2023-03-17T10:44:52.479Z,2.95
2023-03-17T10:50:16.850Z,2.92
2023-03-17T10:55:44.735Z,3.08
2023-03-17T11:01:15.315Z,2.85
2023-03-17T11:06:43.911Z,4.72
2023-03-17T11:12:32.842Z,3.05
2023-03-17T11:18:03.497Z,3.08
2023-03-17T11:23:50.290Z,2.95
2023-03-17T11:29:33.218Z,2.85
2023-03-17T11:35:21.976Z,2.72
2023-03-17T11:41:10.888Z,3.00
2023-03-17T11:46:46.659Z,3.20
2023-03-17T11:52:29.352Z,2.90
2023-03-17T11:58:01.481Z,3.00
2023-03-17T12:03:40.272Z,3.25
2023-03-17T12:09:30.863Z,2.60
2023-03-17T12:14:54.096Z,3.05
2023-03-17T12:20:28.021Z,3.20
2023-03-17T12:25:57.721Z,3.28
2023-03-17T12:31:25.224Z,3.33
2023-03-17T12:36:46.118Z,2.80
2023-03-17T12:42:22.102Z,4.35
2023-03-17T12:47:50.479Z,3.47
2023-03-17T12:53:33.703Z,3.90
2023-03-17T12:59:06.828Z,3.85
2023-03-17T13:04:32.967Z,4.15
2023-03-17T13:09:53.598Z,3.78
2023-03-17T13:15:48.924Z,3.92
2023-03-17T13:21:13.876Z,4.05
2023-03-17T13:26:55.420Z,3.75
2023-03-17T13:32:17.085Z,3.97
2023-03-17T13:38:08.729Z,3.15
2023-03-17T13:43:56.924Z,3.75
2023-03-17T13:49:24.225Z,4.65
2023-03-17T13:54:59.692Z,3.92
2023-03-17T14:00:24.487Z,4.22
2023-03-17T14:05:51.636Z,3.40
2023-03-17T14:11:32.357Z,3.53
2023-03-17T14:17:00.534Z,3.20
2023-03-17T14:22:24.661Z,3.60
2023-03-17T14:27:51.016Z,3.28
2023-03-17T14:33:12.034Z,3.50
2023-03-17T14:38:35.379Z,3.25
2023-03-17T14:44:00.687Z,3.17
2023-03-17T14:49:23.185Z,3.22
2023-03-17T14:54:44.476Z,3.97
2023-03-17T15:00:46.868Z,3.28
2023-03-17T15:06:13.389Z,3.70
2023-03-17T15:11:41.646Z,3.63
2023-03-17T15:17:05.233Z,4.13
2023-03-17T15:22:30.760Z,3.67
2023-03-17T15:27:52.438Z,4.22
2023-03-17T15:33:28.783Z,3.70
2023-03-17T15:38:49.545Z,4.05
2023-03-17T15:44:10.314Z,3.25
2023-03-17T15:49:31.106Z,3.10
2023-03-17T15:54:57.141Z,3.97
2023-03-17T16:00:22.885Z,3.55
2023-03-17T16:05:43.636Z,5.47
2023-03-17T16:11:04.201Z,3.83
2023-03-17T16:16:35.022Z,3.30
2023-03-17T16:21:56.389Z,4.18
2023-03-17T16:27:17.473Z,3.53
2023-03-17T16:32:38.191Z,3.20
2023-03-17T16:37:58.882Z,3.28
2023-03-17T16:43:25.139Z,3.95
2023-03-17T16:48:48.346Z,3.60
2023-03-17T16:54:10.376Z,3.83
2023-03-17T16:59:31.710Z,3.20
2023-03-17T17:04:52.636Z,3.40
2023-03-17T17:10:15.557Z,4.22
2023-03-17T17:15:37.689Z,5.50
2023-03-17T17:20:58.420Z,7.35
2023-03-17T17:26:18.978Z,7.93
2023-03-17T17:31:39.978Z,4.70
2023-03-17T17:37:00.971Z,5.80
2023-03-17T17:42:21.728Z,5.43
2023-03-17T17:47:42.819Z,5.25
2023-03-17T17:53:05.719Z,5.50
2023-03-17T17:58:26.727Z,5.55
2023-03-17T18:03:47.696Z,6.75
2023-03-17T18:09:09.658Z,5.95
2023-03-17T18:14:31.092Z,4.93
2023-03-17T18:19:55.643Z,4.25
2023-03-17T18:25:17.452Z,6.03
2023-03-17T18:30:38.545Z,8.02
2023-03-17T18:36:00.209Z,5.85
2023-03-17T18:41:20.988Z,5.10
2023-03-17T18:46:41.785Z,4.65
2023-03-17T18:52:02.515Z,5.72
2023-03-17T18:57:23.273Z,7.20
2023-03-17T19:02:44.111Z,4.93
2023-03-17T19:08:05.662Z,4.97
2023-03-17T19:13:27.344Z,5.35
2023-03-17T19:18:47.887Z,6.35
2023-03-17T19:24:10.705Z,6.43
2023-03-17T19:29:33.926Z,5.28
2023-03-17T19:34:55.001Z,4.93
2023-03-17T19:40:16.182Z,4.80
2023-03-17T19:45:37.074Z,4.63
2023-03-17T19:50:57.817Z,4.57
2023-03-17T19:56:19.052Z,4.53
2023-03-17T20:01:40.233Z,4.60
2023-03-17T20:07:01.124Z,3.50
2023-03-17T20:12:22.029Z,3.60
2023-03-17T20:17:43.363Z,4.10
2023-03-17T20:23:04.052Z,5.43
2023-03-17T20:28:25.301Z,5.15
2023-03-17T20:33:46.156Z,6.07
2023-03-17T20:39:06.913Z,4.45
2023-03-17T20:44:27.721Z,5.03
2023-03-17T20:49:48.838Z,5.22
2023-03-17T20:55:14.046Z,3.88
2023-03-17T21:00:35.557Z,3.20
2023-03-17T21:05:56.420Z,3.72
2023-03-17T21:11:20.331Z,4.22
2023-03-17T21:16:45.718Z,5.50
2023-03-17T21:22:06.892Z,5.15
2023-03-17T21:27:27.708Z,6.97
2023-03-17T21:32:48.533Z,7.60
2023-03-17T21:38:09.417Z,8.38
2023-03-17T21:43:30.524Z,15.15
2023-03-17T21:48:52.222Z,7.55
2023-03-17T21:54:14.273Z,11.15
2023-03-17T21:59:35.811Z,10.80
2023-03-17T22:04:56.901Z,7.25
2023-03-17T22:10:18.109Z,8.07
2023-03-17T22:15:38.744Z,8.80
2023-03-17T22:20:59.893Z,8.40
2023-03-17T22:26:21.952Z,8.63
2023-03-17T22:31:43.277Z,9.52
2023-03-17T22:37:04.614Z,5.25
2023-03-17T22:42:25.588Z,4.75
2023-03-17T22:47:46.569Z,5.88
2023-03-17T22:53:07.850Z,7.13
2023-03-17T22:58:29.073Z,5.88
2023-03-17T23:03:50.615Z,7.00
2023-03-17T23:09:11.320Z,6.60
2023-03-17T23:14:32.077Z,6.50
2023-03-17T23:19:53.029Z,5.90
2023-03-17T23:25:13.765Z,7.90
2023-03-17T23:30:35.797Z,10.20
2023-03-17T23:35:57.256Z,6.90
2023-03-17T23:41:18.660Z,5.00
2023-03-17T23:46:39.374Z,4.68
2023-03-17T23:52:00.050Z,3.88
2023-03-17T23:57:21.025Z,3.75
